sensor_id;sensor_type;location;lat;lon;timestamp;P1;durP1;ratioP1;P2;durP2;ratioP2
32321;SDS011;61553;48.994;8.940;2022-08-18T00:02:12;8.82;;;6.82;;
32321;SDS011;61553;48.994;8.940;2022-08-18T00:04:41;9.18;;;7.65;;
32321;SDS011;61553;48.994;8.940;2022-08-18T00:07:08;8.57;;;7.28;;
32321;SDS011;61553;48.994;8.940;2022-08-18T00:09:37;8.85;;;6.57;;
32321;SDS011;61553;48.994;8.940;2022-08-18T00:12:06;9.68;;;6.78;;
32321;SDS011;61553;48.994;8.940;2022-08-18T00:14:41;7.85;;;6.70;;
32321;SDS011;61553;48.994;8.940;2022-08-18T00:17:07;8.20;;;6.38;;
32321;SDS011;61553;48.994;8.940;2022-08-18T00:19:33;9.48;;;6.65;;
32321;SDS011;61553;48.994;8.940;2022-08-18T00:21:59;6.80;;;6.05;;
32321;SDS011;61553;48.994;8.940;2022-08-18T00:24:25;8.45;;;5.97;;
32321;SDS011;61553;48.994;8.940;2022-08-18T00:26:50;9.18;;;6.00;;
32321;SDS011;61553;48.994;8.940;2022-08-18T00:29:16;7.65;;;5.70;;
32321;SDS011;61553;48.994;8.940;2022-08-18T00:31:42;8.70;;;6.22;;
32321;SDS011;61553;48.994;8.940;2022-08-18T00:34:08;9.48;;;6.22;;
32321;SDS011;61553;48.994;8.940;2022-08-18T00:36:34;7.97;;;5.47;;
32321;SDS011;61553;48.994;8.940;2022-08-18T00:39:00;9.38;;;6.30;;
32321;SDS011;61553;48.994;8.940;2022-08-18T00:41:27;8.07;;;6.28;;
32321;SDS011;61553;48.994;8.940;2022-08-18T00:43:53;7.85;;;5.88;;
32321;SDS011;61553;48.994;8.940;2022-08-18T00:46:26;8.73;;;6.43;;
32321;SDS011;61553;48.994;8.940;2022-08-18T00:48:57;7.65;;;6.00;;
32321;SDS011;61553;48.994;8.940;2022-08-18T00:54:37;8.75;;;6.00;;
32321;SDS011;61553;48.994;8.940;2022-08-18T00:56:57;8.93;;;6.07;;
32321;SDS011;61553;48.994;8.940;2022-08-18T01:02:11;8.32;;;6.53;;
32321;SDS011;61553;48.994;8.940;2022-08-18T01:05:00;6.78;;;5.80;;
32321;SDS011;61553;48.994;8.940;2022-08-18T01:07:29;7.40;;;5.95;;
32321;SDS011;61553;48.994;8.940;2022-08-18T01:10:08;8.40;;;5.80;;
32321;SDS011;61553;48.994;8.940;2022-08-18T01:12:39;6.47;;;5.78;;
32321;SDS011;61553;48.994;8.940;2022-08-18T01:15:04;10.02;;;6.00;;
32321;SDS011;61553;48.994;8.940;2022-08-18T01:17:31;8.25;;;6.13;;
32321;SDS011;61553;48.994;8.940;2022-08-18T01:20:17;8.23;;;6.10;;
32321;SDS011;61553;48.994;8.940;2022-08-18T01:23:11;7.75;;;6.47;;
32321;SDS011;61553;48.994;8.940;2022-08-18T01:25:39;7.75;;;5.80;;
32321;SDS011;61553;48.994;8.940;2022-08-18T01:28:28;9.70;;;6.55;;
32321;SDS011;61553;48.994;8.940;2022-08-18T01:30:56;7.57;;;6.00;;
32321;SDS011;61553;48.994;8.940;2022-08-18T01:33:28;9.70;;;6.43;;
32321;SDS011;61553;48.994;8.940;2022-08-18T01:36:04;8.10;;;6.30;;
32321;SDS011;61553;48.994;8.940;2022-08-18T01:38:38;6.90;;;6.05;;
32321;SDS011;61553;48.994;8.940;2022-08-18T01:41:04;8.88;;;6.30;;
32321;SDS011;61553;48.994;8.940;2022-08-18T01:43:31;8.98;;;6.28;;
32321;SDS011;61553;48.994;8.940;2022-08-18T01:45:58;8.75;;;6.22;;
32321;SDS011;61553;48.994;8.940;2022-08-18T01:48:25;10.63;;;6.38;;
32321;SDS011;61553;48.994;8.940;2022-08-18T01:50:51;9.27;;;6.30;;
32321;SDS011;61553;48.994;8.940;2022-08-18T01:53:18;9.07;;;6.78;;
32321;SDS011;61553;48.994;8.940;2022-08-18T01:55:44;9.98;;;6.85;;
32321;SDS011;61553;48.994;8.940;2022-08-18T01:58:09;8.50;;;6.95;;
32321;SDS011;61553;48.994;8.940;2022-08-18T02:00:36;7.93;;;6.93;;
32321;SDS011;61553;48.994;8.940;2022-08-18T02:03:03;9.80;;;6.45;;
32321;SDS011;61553;48.994;8.940;2022-08-18T02:05:33;8.75;;;7.10;;
32321;SDS011;61553;48.994;8.940;2022-08-18T02:08:03;8.98;;;6.63;;
32321;SDS011;61553;48.994;8.940;2022-08-18T02:10:29;7.38;;;6.38;;
32321;SDS011;61553;48.994;8.940;2022-08-18T02:12:55;9.43;;;6.82;;
32321;SDS011;61553;48.994;8.940;2022-08-18T02:15:21;9.60;;;6.88;;
32321;SDS011;61553;48.994;8.940;2022-08-18T02:17:46;7.80;;;7.00;;
32321;SDS011;61553;48.994;8.940;2022-08-18T02:20:14;10.73;;;7.78;;
32321;SDS011;61553;48.994;8.940;2022-08-18T02:22:41;7.95;;;7.00;;
32321;SDS011;61553;48.994;8.940;2022-08-18T02:25:07;9.40;;;7.18;;
32321;SDS011;61553;48.994;8.940;2022-08-18T02:27:33;8.18;;;6.63;;
32321;SDS011;61553;48.994;8.940;2022-08-18T02:29:59;8.65;;;7.38;;
32321;SDS011;61553;48.994;8.940;2022-08-18T02:32:26;8.27;;;7.18;;
32321;SDS011;61553;48.994;8.940;2022-08-18T02:34:52;8.70;;;7.50;;
32321;SDS011;61553;48.994;8.940;2022-08-18T02:37:19;9.60;;;7.82;;
32321;SDS011;61553;48.994;8.940;2022-08-18T02:39:45;9.15;;;7.53;;
32321;SDS011;61553;48.994;8.940;2022-08-18T02:42:11;11.27;;;7.55;;
32321;SDS011;61553;48.994;8.940;2022-08-18T02:44:38;8.38;;;7.18;;
32321;SDS011;61553;48.994;8.940;2022-08-18T02:47:04;10.50;;;8.20;;
32321;SDS011;61553;48.994;8.940;2022-08-18T02:49:30;9.60;;;7.53;;
32321;SDS011;61553;48.994;8.940;2022-08-18T02:51:55;11.48;;;8.18;;
32321;SDS011;61553;48.994;8.940;2022-08-18T02:54:22;9.55;;;7.50;;
32321;SDS011;61553;48.994;8.940;2022-08-18T02:56:49;8.88;;;7.57;;
32321;SDS011;61553;48.994;8.940;2022-08-18T02:59:17;9.90;;;8.00;;
32321;SDS011;61553;48.994;8.940;2022-08-18T03:01:51;11.43;;;8.10;;
32321;SDS011;61553;48.994;8.940;2022-08-18T03:04:23;9.43;;;7.95;;
32321;SDS011;61553;48.994;8.940;2022-08-18T03:09:17;9.55;;;7.80;;
32321;SDS011;61553;48.994;8.940;2022-08-18T03:11:44;8.77;;;7.60;;
32321;SDS011;61553;48.994;8.940;2022-08-18T03:14:10;10.52;;;8.00;;
32321;SDS011;61553;48.994;8.940;2022-08-18T03:16:38;8.38;;;7.53;;
32321;SDS011;61553;48.994;8.940;2022-08-18T03:19:05;8.20;;;7.28;;
32321;SDS011;61553;48.994;8.940;2022-08-18T03:21:31;8.43;;;7.45;;
32321;SDS011;61553;48.994;8.940;2022-08-18T03:24:01;10.13;;;7.53;;
32321;SDS011;61553;48.994;8.940;2022-08-18T03:26:28;9.38;;;7.60;;
32321;SDS011;61553;48.994;8.940;2022-08-18T03:28:55;9.73;;;7.45;;
32321;SDS011;61553;48.994;8.940;2022-08-18T03:31:23;15.07;;;7.68;;
32321;SDS011;61553;48.994;8.940;2022-08-18T03:33:50;8.95;;;7.32;;
32321;SDS011;61553;48.994;8.940;2022-08-18T03:36:18;8.85;;;7.15;;
32321;SDS011;61553;48.994;8.940;2022-08-18T03:38:46;11.68;;;8.05;;
32321;SDS011;61553;48.994;8.940;2022-08-18T03:41:13;11.93;;;7.85;;
32321;SDS011;61553;48.994;8.940;2022-08-18T03:43:41;9.45;;;7.97;;
32321;SDS011;61553;48.994;8.940;2022-08-18T03:46:09;10.48;;;7.88;;
32321;SDS011;61553;48.994;8.940;2022-08-18T03:48:37;9.30;;;7.47;;
32321;SDS011;61553;48.994;8.940;2022-08-18T03:53:36;9.27;;;7.78;;
32321;SDS011;61553;48.994;8.940;2022-08-18T03:56:05;10.85;;;7.53;;
32321;SDS011;61553;48.994;8.940;2022-08-18T03:58:40;8.30;;;7.40;;
32321;SDS011;61553;48.994;8.940;2022-08-18T04:01:10;12.57;;;8.90;;
32321;SDS011;61553;48.994;8.940;2022-08-18T04:03:37;9.80;;;8.20;;
32321;SDS011;61553;48.994;8.940;2022-08-18T04:06:03;8.82;;;7.60;;
32321;SDS011;61553;48.994;8.940;2022-08-18T04:08:29;10.18;;;7.30;;
32321;SDS011;61553;48.994;8.940;2022-08-18T04:10:54;10.68;;;8.48;;
32321;SDS011;61553;48.994;8.940;2022-08-18T04:13:20;9.70;;;8.13;;
32321;SDS011;61553;48.994;8.940;2022-08-18T04:15:46;10.65;;;8.43;;
32321;SDS011;61553;48.994;8.940;2022-08-18T04:18:12;11.90;;;7.97;;
32321;SDS011;61553;48.994;8.940;2022-08-18T04:20:37;9.07;;;7.88;;
32321;SDS011;61553;48.994;8.940;2022-08-18T04:23:04;11.02;;;7.80;;
32321;SDS011;61553;48.994;8.940;2022-08-18T04:25:30;9.27;;;7.97;;
32321;SDS011;61553;48.994;8.940;2022-08-18T04:27:57;11.65;;;8.68;;
32321;SDS011;61553;48.994;8.940;2022-08-18T04:30:25;12.30;;;8.73;;
32321;SDS011;61553;48.994;8.940;2022-08-18T04:32:53;9.90;;;8.35;;
32321;SDS011;61553;48.994;8.940;2022-08-18T04:35:18;9.65;;;7.82;;
32321;SDS011;61553;48.994;8.940;2022-08-18T04:37:44;9.10;;;7.90;;
32321;SDS011;61553;48.994;8.940;2022-08-18T04:40:10;9.23;;;7.40;;
32321;SDS011;61553;48.994;8.940;2022-08-18T04:42:38;8.82;;;7.70;;
32321;SDS011;61553;48.994;8.940;2022-08-18T04:45:04;10.23;;;7.65;;
32321;SDS011;61553;48.994;8.940;2022-08-18T04:47:30;9.30;;;7.78;;
32321;SDS011;61553;48.994;8.940;2022-08-18T04:49:56;10.35;;;8.35;;
32321;SDS011;61553;48.994;8.940;2022-08-18T04:52:22;10.68;;;8.02;;
32321;SDS011;61553;48.994;8.940;2022-08-18T04:55:06;9.52;;;7.47;;
32321;SDS011;61553;48.994;8.940;2022-08-18T04:57:31;9.70;;;7.10;;
32321;SDS011;61553;48.994;8.940;2022-08-18T04:59:57;9.90;;;6.97;;
32321;SDS011;61553;48.994;8.940;2022-08-18T05:02:23;8.68;;;7.72;;
32321;SDS011;61553;48.994;8.940;2022-08-18T05:04:49;8.55;;;7.45;;
32321;SDS011;61553;48.994;8.940;2022-08-18T05:07:16;8.90;;;7.97;;
32321;SDS011;61553;48.994;8.940;2022-08-18T05:09:44;10.15;;;7.68;;
32321;SDS011;61553;48.994;8.940;2022-08-18T05:12:11;8.75;;;7.30;;
32321;SDS011;61553;48.994;8.940;2022-08-18T05:14:39;9.05;;;7.65;;
32321;SDS011;61553;48.994;8.940;2022-08-18T05:17:06;8.45;;;7.22;;
32321;SDS011;61553;48.994;8.940;2022-08-18T05:19:32;8.40;;;7.53;;
32321;SDS011;61553;48.994;8.940;2022-08-18T05:21:59;9.68;;;8.10;;
32321;SDS011;61553;48.994;8.940;2022-08-18T05:24:26;10.60;;;8.30;;
32321;SDS011;61553;48.994;8.940;2022-08-18T05:26:53;11.52;;;8.90;;
32321;SDS011;61553;48.994;8.940;2022-08-18T05:29:20;9.50;;;8.25;;
32321;SDS011;61553;48.994;8.940;2022-08-18T05:31:50;10.07;;;9.00;;
32321;SDS011;61553;48.994;8.940;2022-08-18T05:34:17;10.60;;;8.35;;
32321;SDS011;61553;48.994;8.940;2022-08-18T05:41:49;10.37;;;8.90;;
32321;SDS011;61553;48.994;8.940;2022-08-18T05:44:21;8.95;;;7.40;;
32321;SDS011;61553;48.994;8.940;2022-08-18T05:46:54;14.02;;;8.32;;
32321;SDS011;61553;48.994;8.940;2022-08-18T05:49:26;8.52;;;7.63;;
32321;SDS011;61553;48.994;8.940;2022-08-18T05:54:53;8.73;;;7.43;;
32321;SDS011;61553;48.994;8.940;2022-08-18T05:57:42;8.88;;;7.30;;
32321;SDS011;61553;48.994;8.940;2022-08-18T06:00:19;9.18;;;6.97;;
32321;SDS011;61553;48.994;8.940;2022-08-18T06:02:56;9.30;;;7.20;;
32321;SDS011;61553;48.994;8.940;2022-08-18T06:05:40;13.10;;;7.00;;
32321;SDS011;61553;48.994;8.940;2022-08-18T06:08:13;8.73;;;7.47;;
32321;SDS011;61553;48.994;8.940;2022-08-18T06:10:42;9.18;;;7.57;;
32321;SDS011;61553;48.994;8.940;2022-08-18T06:13:11;11.85;;;8.35;;
32321;SDS011;61553;48.994;8.940;2022-08-18T06:21:05;10.98;;;8.05;;
32321;SDS011;61553;48.994;8.940;2022-08-18T06:29:51;8.15;;;6.88;;
32321;SDS011;61553;48.994;8.940;2022-08-18T06:32:54;10.65;;;7.45;;
32321;SDS011;61553;48.994;8.940;2022-08-18T06:38:39;9.15;;;7.82;;
32321;SDS011;61553;48.994;8.940;2022-08-18T06:49:49;9.43;;;7.28;;
32321;SDS011;61553;48.994;8.940;2022-08-18T06:52:37;9.02;;;7.15;;
32321;SDS011;61553;48.994;8.940;2022-08-18T06:55:15;9.10;;;7.05;;
32321;SDS011;61553;48.994;8.940;2022-08-18T06:57:55;8.43;;;7.07;;
32321;SDS011;61553;48.994;8.940;2022-08-18T07:00:24;8.38;;;6.47;;
32321;SDS011;61553;48.994;8.940;2022-08-18T07:05:32;10.07;;;7.00;;
32321;SDS011;61553;48.994;8.940;2022-08-18T07:10:36;7.10;;;5.75;;
32321;SDS011;61553;48.994;8.940;2022-08-18T07:13:07;9.43;;;6.05;;
32321;SDS011;61553;48.994;8.940;2022-08-18T07:15:48;8.52;;;5.90;;
32321;SDS011;61553;48.994;8.940;2022-08-18T07:18:15;7.55;;;5.65;;
32321;SDS011;61553;48.994;8.940;2022-08-18T07:20:48;7.03;;;5.97;;
32321;SDS011;61553;48.994;8.940;2022-08-18T07:25:59;9.57;;;6.05;;
32321;SDS011;61553;48.994;8.940;2022-08-18T07:28:41;8.25;;;5.53;;
32321;SDS011;61553;48.994;8.940;2022-08-18T07:33:49;7.78;;;5.88;;
32321;SDS011;61553;48.994;8.940;2022-08-18T07:36:17;7.63;;;5.70;;
32321;SDS011;61553;48.994;8.940;2022-08-18T07:38:50;8.85;;;5.97;;
32321;SDS011;61553;48.994;8.940;2022-08-18T07:41:24;8.18;;;5.60;;
32321;SDS011;61553;48.994;8.940;2022-08-18T07:44:04;9.80;;;5.85;;
32321;SDS011;61553;48.994;8.940;2022-08-18T07:46:53;8.00;;;6.43;;
32321;SDS011;61553;48.994;8.940;2022-08-18T07:49:27;7.50;;;6.20;;
32321;SDS011;61553;48.994;8.940;2022-08-18T07:52:05;9.40;;;5.95;;
32321;SDS011;61553;48.994;8.940;2022-08-18T07:54:42;6.70;;;5.78;;
32321;SDS011;61553;48.994;8.940;2022-08-18T08:00:13;7.63;;;5.90;;
32321;SDS011;61553;48.994;8.940;2022-08-18T08:03:51;8.50;;;6.63;;
32321;SDS011;61553;48.994;8.940;2022-08-18T08:11:38;8.30;;;6.55;;
32321;SDS011;61553;48.994;8.940;2022-08-18T08:14:17;10.00;;;7.80;;
32321;SDS011;61553;48.994;8.940;2022-08-18T08:33:32;9.68;;;6.53;;
32321;SDS011;61553;48.994;8.940;2022-08-18T08:36:06;9.13;;;7.80;;
32321;SDS011;61553;48.994;8.940;2022-08-18T08:38:48;10.77;;;8.10;;
32321;SDS011;61553;48.994;8.940;2022-08-18T08:41:28;8.02;;;6.88;;
32321;SDS011;61553;48.994;8.940;2022-08-18T08:47:03;8.15;;;6.90;;
32321;SDS011;61553;48.994;8.940;2022-08-18T08:49:50;10.68;;;7.38;;
32321;SDS011;61553;48.994;8.940;2022-08-18T08:52:23;8.32;;;6.80;;
32321;SDS011;61553;48.994;8.940;2022-08-18T08:55:03;9.77;;;8.03;;
32321;SDS011;61553;48.994;8.940;2022-08-18T08:57:35;8.68;;;6.85;;
32321;SDS011;61553;48.994;8.940;2022-08-18T09:00:06;9.65;;;6.80;;
32321;SDS011;61553;48.994;8.940;2022-08-18T09:05:23;9.77;;;6.68;;
32321;SDS011;61553;48.994;8.940;2022-08-18T09:08:34;10.00;;;6.97;;
32321;SDS011;61553;48.994;8.940;2022-08-18T09:14:00;8.55;;;7.13;;
32321;SDS011;61553;48.994;8.940;2022-08-18T09:19:53;10.70;;;7.68;;
32321;SDS011;61553;48.994;8.940;2022-08-18T09:38:33;11.95;;;7.93;;
32321;SDS011;61553;48.994;8.940;2022-08-18T09:41:25;10.55;;;7.47;;
32321;SDS011;61553;48.994;8.940;2022-08-18T09:54:20;8.00;;;7.18;;
32321;SDS011;61553;48.994;8.940;2022-08-18T09:56:55;7.53;;;6.78;;
32321;SDS011;61553;48.994;8.940;2022-08-18T10:02:03;9.55;;;7.63;;
32321;SDS011;61553;48.994;8.940;2022-08-18T10:04:39;9.65;;;7.47;;
32321;SDS011;61553;48.994;8.940;2022-08-18T10:18:44;8.65;;;7.25;;
32321;SDS011;61553;48.994;8.940;2022-08-18T10:21:19;8.57;;;7.35;;
32321;SDS011;61553;48.994;8.940;2022-08-18T10:32:21;8.57;;;7.50;;
32321;SDS011;61553;48.994;8.940;2022-08-18T10:47:56;8.80;;;6.68;;
32321;SDS011;61553;48.994;8.940;2022-08-18T10:50:28;8.63;;;7.30;;
32321;SDS011;61553;48.994;8.940;2022-08-18T10:53:18;11.27;;;7.93;;
32321;SDS011;61553;48.994;8.940;2022-08-18T10:58:35;9.48;;;7.57;;
32321;SDS011;61553;48.994;8.940;2022-08-18T11:04:23;10.18;;;8.05;;
32321;SDS011;61553;48.994;8.940;2022-08-18T11:07:07;11.38;;;9.93;;
32321;SDS011;61553;48.994;8.940;2022-08-18T11:09:40;10.93;;;9.52;;
32321;SDS011;61553;48.994;8.940;2022-08-18T11:12:07;11.45;;;10.20;;
32321;SDS011;61553;48.994;8.940;2022-08-18T11:14:52;13.00;;;9.15;;
32321;SDS011;61553;48.994;8.940;2022-08-18T11:17:34;11.20;;;10.07;;
32321;SDS011;61553;48.994;8.940;2022-08-18T11:20:09;11.27;;;9.80;;
32321;SDS011;61553;48.994;8.940;2022-08-18T11:22:38;10.23;;;8.57;;
32321;SDS011;61553;48.994;8.940;2022-08-18T11:25:17;10.05;;;9.00;;
32321;SDS011;61553;48.994;8.940;2022-08-18T11:27:49;8.57;;;7.78;;
32321;SDS011;61553;48.994;8.940;2022-08-18T11:30:24;10.43;;;8.07;;
32321;SDS011;61553;48.994;8.940;2022-08-18T11:32:55;11.80;;;8.07;;
32321;SDS011;61553;48.994;8.940;2022-08-18T11:35:28;11.85;;;7.78;;
32321;SDS011;61553;48.994;8.940;2022-08-18T11:37:57;10.18;;;8.32;;
32321;SDS011;61553;48.994;8.940;2022-08-18T11:45:32;9.40;;;7.97;;
32321;SDS011;61553;48.994;8.940;2022-08-18T11:48:39;10.18;;;8.38;;
32321;SDS011;61553;48.994;8.940;2022-08-18T11:56:31;7.97;;;6.80;;
32321;SDS011;61553;48.994;8.940;2022-08-18T11:59:41;10.45;;;8.32;;
32321;SDS011;61553;48.994;8.940;2022-08-18T12:09:33;8.25;;;6.35;;
32321;SDS011;61553;48.994;8.940;2022-08-18T12:12:18;8.80;;;7.07;;
32321;SDS011;61553;48.994;8.940;2022-08-18T12:17:23;9.15;;;7.50;;
32321;SDS011;61553;48.994;8.940;2022-08-18T12:19:49;10.05;;;8.30;;
32321;SDS011;61553;48.994;8.940;2022-08-18T12:22:18;9.85;;;7.82;;
32321;SDS011;61553;48.994;8.940;2022-08-18T12:24:48;8.45;;;7.63;;
32321;SDS011;61553;48.994;8.940;2022-08-18T12:27:16;15.95;;;7.45;;
32321;SDS011;61553;48.994;8.940;2022-08-18T12:29:44;12.68;;;7.35;;
32321;SDS011;61553;48.994;8.940;2022-08-18T12:32:10;8.43;;;7.38;;
32321;SDS011;61553;48.994;8.940;2022-08-18T12:34:36;11.05;;;7.43;;
32321;SDS011;61553;48.994;8.940;2022-08-18T12:37:03;11.38;;;8.65;;
32321;SDS011;61553;48.994;8.940;2022-08-18T12:39:30;10.60;;;8.18;;
32321;SDS011;61553;48.994;8.940;2022-08-18T12:41:56;9.35;;;7.60;;
32321;SDS011;61553;48.994;8.940;2022-08-18T12:44:22;9.82;;;7.78;;
32321;SDS011;61553;48.994;8.940;2022-08-18T12:46:49;13.30;;;8.40;;
32321;SDS011;61553;48.994;8.940;2022-08-18T12:49:22;8.57;;;7.45;;
32321;SDS011;61553;48.994;8.940;2022-08-18T12:51:49;8.18;;;6.80;;
32321;SDS011;61553;48.994;8.940;2022-08-18T12:54:16;10.50;;;7.70;;
32321;SDS011;61553;48.994;8.940;2022-08-18T12:56:42;9.13;;;7.07;;
32321;SDS011;61553;48.994;8.940;2022-08-18T12:59:12;8.90;;;6.82;;
32321;SDS011;61553;48.994;8.940;2022-08-18T13:01:38;8.25;;;7.00;;
32321;SDS011;61553;48.994;8.940;2022-08-18T13:04:04;8.15;;;7.03;;
32321;SDS011;61553;48.994;8.940;2022-08-18T13:06:30;8.30;;;7.13;;
32321;SDS011;61553;48.994;8.940;2022-08-18T13:08:58;7.53;;;6.25;;
32321;SDS011;61553;48.994;8.940;2022-08-18T13:11:24;7.25;;;6.55;;
32321;SDS011;61553;48.994;8.940;2022-08-18T13:13:50;7.03;;;6.30;;
32321;SDS011;61553;48.994;8.940;2022-08-18T13:16:17;7.68;;;6.90;;
32321;SDS011;61553;48.994;8.940;2022-08-18T13:18:43;7.22;;;6.47;;
32321;SDS011;61553;48.994;8.940;2022-08-18T13:21:10;8.68;;;7.30;;
32321;SDS011;61553;48.994;8.940;2022-08-18T13:23:38;8.13;;;6.40;;
32321;SDS011;61553;48.994;8.940;2022-08-18T13:26:05;10.60;;;7.22;;
32321;SDS011;61553;48.994;8.940;2022-08-18T13:28:33;9.02;;;6.47;;
32321;SDS011;61553;48.994;8.940;2022-08-18T13:31:00;8.00;;;6.95;;
32321;SDS011;61553;48.994;8.940;2022-08-18T13:33:26;8.00;;;7.18;;
32321;SDS011;61553;48.994;8.940;2022-08-18T13:35:52;8.63;;;7.20;;
32321;SDS011;61553;48.994;8.940;2022-08-18T13:38:18;9.25;;;7.03;;
32321;SDS011;61553;48.994;8.940;2022-08-18T13:40:47;8.68;;;6.55;;
32321;SDS011;61553;48.994;8.940;2022-08-18T13:43:15;8.27;;;7.00;;
32321;SDS011;61553;48.994;8.940;2022-08-18T13:45:42;9.73;;;6.93;;
32321;SDS011;61553;48.994;8.940;2022-08-18T13:48:08;9.85;;;8.05;;
32321;SDS011;61553;48.994;8.940;2022-08-18T13:50:35;7.68;;;6.85;;
32321;SDS011;61553;48.994;8.940;2022-08-18T13:53:04;8.80;;;6.97;;
32321;SDS011;61553;48.994;8.940;2022-08-18T13:55:32;7.63;;;6.65;;
32321;SDS011;61553;48.994;8.940;2022-08-18T13:57:57;9.55;;;7.68;;
32321;SDS011;61553;48.994;8.940;2022-08-18T14:00:24;8.70;;;7.38;;
32321;SDS011;61553;48.994;8.940;2022-08-18T14:02:50;9.43;;;6.95;;
32321;SDS011;61553;48.994;8.940;2022-08-18T14:05:18;8.63;;;6.60;;
32321;SDS011;61553;48.994;8.940;2022-08-18T14:07:44;9.25;;;6.60;;
32321;SDS011;61553;48.994;8.940;2022-08-18T14:10:10;7.13;;;6.43;;
32321;SDS011;61553;48.994;8.940;2022-08-18T14:12:37;7.38;;;6.68;;
32321;SDS011;61553;48.994;8.940;2022-08-18T14:15:06;9.52;;;6.45;;
32321;SDS011;61553;48.994;8.940;2022-08-18T14:17:35;9.50;;;6.68;;
32321;SDS011;61553;48.994;8.940;2022-08-18T14:20:01;8.45;;;6.63;;
32321;SDS011;61553;48.994;8.940;2022-08-18T14:22:46;7.20;;;6.30;;
32321;SDS011;61553;48.994;8.940;2022-08-18T14:25:32;6.65;;;5.95;;
32321;SDS011;61553;48.994;8.940;2022-08-18T14:28:16;7.85;;;5.75;;
32321;SDS011;61553;48.994;8.940;2022-08-18T14:30:44;8.85;;;5.95;;
32321;SDS011;61553;48.994;8.940;2022-08-18T14:33:10;8.68;;;5.75;;
32321;SDS011;61553;48.994;8.940;2022-08-18T14:35:39;6.25;;;5.65;;
32321;SDS011;61553;48.994;8.940;2022-08-18T14:38:05;7.28;;;5.30;;
32321;SDS011;61553;48.994;8.940;2022-08-18T14:40:32;7.45;;;5.85;;
32321;SDS011;61553;48.994;8.940;2022-08-18T14:42:58;8.48;;;5.55;;
32321;SDS011;61553;48.994;8.940;2022-08-18T14:45:26;7.80;;;5.57;;
32321;SDS011;61553;48.994;8.940;2022-08-18T14:47:53;8.18;;;5.13;;
32321;SDS011;61553;48.994;8.940;2022-08-18T14:50:20;5.63;;;5.03;;
32321;SDS011;61553;48.994;8.940;2022-08-18T14:52:46;5.38;;;4.70;;
32321;SDS011;61553;48.994;8.940;2022-08-18T14:55:13;7.88;;;5.68;;
32321;SDS011;61553;48.994;8.940;2022-08-18T14:57:40;8.85;;;5.50;;
32321;SDS011;61553;48.994;8.940;2022-08-18T15:00:06;7.72;;;5.75;;
32321;SDS011;61553;48.994;8.940;2022-08-18T15:02:36;7.05;;;5.78;;
32321;SDS011;61553;48.994;8.940;2022-08-18T15:05:03;10.95;;;5.75;;
32321;SDS011;61553;48.994;8.940;2022-08-18T15:07:30;7.85;;;6.32;;
32321;SDS011;61553;48.994;8.940;2022-08-18T15:09:55;8.52;;;5.97;;
32321;SDS011;61553;48.994;8.940;2022-08-18T15:12:23;9.52;;;6.30;;
32321;SDS011;61553;48.994;8.940;2022-08-18T15:14:49;7.85;;;5.65;;
32321;SDS011;61553;48.994;8.940;2022-08-18T15:17:15;6.88;;;5.47;;
32321;SDS011;61553;48.994;8.940;2022-08-18T15:19:41;6.80;;;4.93;;
32321;SDS011;61553;48.994;8.940;2022-08-18T15:22:08;9.77;;;6.22;;
32321;SDS011;61553;48.994;8.940;2022-08-18T15:24:53;7.03;;;5.60;;
32321;SDS011;61553;48.994;8.940;2022-08-18T15:27:37;10.50;;;5.63;;
32321;SDS011;61553;48.994;8.940;2022-08-18T15:30:04;7.55;;;6.00;;
32321;SDS011;61553;48.994;8.940;2022-08-18T15:32:32;8.32;;;6.55;;
32321;SDS011;61553;48.994;8.940;2022-08-18T15:34:58;9.55;;;6.60;;
32321;SDS011;61553;48.994;8.940;2022-08-18T15:37:24;7.88;;;6.85;;
32321;SDS011;61553;48.994;8.940;2022-08-18T15:42:50;9.68;;;6.55;;
32321;SDS011;61553;48.994;8.940;2022-08-18T15:45:20;8.57;;;6.72;;
32321;SDS011;61553;48.994;8.940;2022-08-18T15:47:49;9.45;;;6.70;;
32321;SDS011;61553;48.994;8.940;2022-08-18T15:50:16;10.65;;;6.95;;
32321;SDS011;61553;48.994;8.940;2022-08-18T15:55:19;9.80;;;7.45;;
32321;SDS011;61553;48.994;8.940;2022-08-18T15:57:46;7.85;;;7.05;;
32321;SDS011;61553;48.994;8.940;2022-08-18T16:00:15;9.85;;;7.47;;
32321;SDS011;61553;48.994;8.940;2022-08-18T16:02:47;8.50;;;7.18;;
32321;SDS011;61553;48.994;8.940;2022-08-18T16:05:15;11.48;;;7.70;;
32321;SDS011;61553;48.994;8.940;2022-08-18T16:07:41;8.82;;;7.35;;
32321;SDS011;61553;48.994;8.940;2022-08-18T16:10:09;8.35;;;6.82;;
32321;SDS011;61553;48.994;8.940;2022-08-18T16:12:36;8.77;;;7.25;;
32321;SDS011;61553;48.994;8.940;2022-08-18T16:15:01;8.85;;;7.32;;
32321;SDS011;61553;48.994;8.940;2022-08-18T16:17:28;8.32;;;7.50;;
32321;SDS011;61553;48.994;8.940;2022-08-18T16:19:55;8.88;;;7.57;;
32321;SDS011;61553;48.994;8.940;2022-08-18T16:22:21;10.55;;;8.13;;
32321;SDS011;61553;48.994;8.940;2022-08-18T16:24:47;7.80;;;6.70;;
32321;SDS011;61553;48.994;8.940;2022-08-18T16:27:14;9.15;;;7.57;;
32321;SDS011;61553;48.994;8.940;2022-08-18T16:29:40;9.10;;;7.68;;
32321;SDS011;61553;48.994;8.940;2022-08-18T16:32:06;9.95;;;8.20;;
32321;SDS011;61553;48.994;8.940;2022-08-18T16:34:32;10.73;;;7.82;;
32321;SDS011;61553;48.994;8.940;2022-08-18T16:36:58;8.13;;;7.32;;
32321;SDS011;61553;48.994;8.940;2022-08-18T16:39:24;9.60;;;7.65;;
32321;SDS011;61553;48.994;8.940;2022-08-18T16:41:50;9.82;;;7.63;;
32321;SDS011;61553;48.994;8.940;2022-08-18T16:44:15;7.35;;;6.65;;
32321;SDS011;61553;48.994;8.940;2022-08-18T16:46:41;9.02;;;7.32;;
32321;SDS011;61553;48.994;8.940;2022-08-18T16:49:07;8.60;;;6.97;;
32321;SDS011;61553;48.994;8.940;2022-08-18T16:51:34;8.77;;;7.57;;
32321;SDS011;61553;48.994;8.940;2022-08-18T16:54:00;9.77;;;6.60;;
32321;SDS011;61553;48.994;8.940;2022-08-18T16:56:28;8.52;;;7.38;;
32321;SDS011;61553;48.994;8.940;2022-08-18T16:58:55;9.45;;;6.65;;
32321;SDS011;61553;48.994;8.940;2022-08-18T17:01:40;10.13;;;7.68;;
32321;SDS011;61553;48.994;8.940;2022-08-18T17:04:25;7.95;;;7.00;;
32321;SDS011;61553;48.994;8.940;2022-08-18T17:06:53;10.20;;;6.82;;
32321;SDS011;61553;48.994;8.940;2022-08-18T17:09:20;13.90;;;7.60;;
32321;SDS011;61553;48.994;8.940;2022-08-18T17:11:47;11.77;;;8.82;;
32321;SDS011;61553;48.994;8.940;2022-08-18T17:14:13;10.38;;;9.35;;
32321;SDS011;61553;48.994;8.940;2022-08-18T17:16:40;11.27;;;9.60;;
32321;SDS011;61553;48.994;8.940;2022-08-18T17:19:08;12.60;;;10.35;;
32321;SDS011;61553;48.994;8.940;2022-08-18T17:21:34;11.40;;;10.30;;
32321;SDS011;61553;48.994;8.940;2022-08-18T17:24:01;14.27;;;11.15;;
32321;SDS011;61553;48.994;8.940;2022-08-18T17:29:34;12.32;;;10.98;;
32321;SDS011;61553;48.994;8.940;2022-08-18T17:35:05;12.88;;;11.57;;
32321;SDS011;61553;48.994;8.940;2022-08-18T17:37:38;11.52;;;10.30;;
32321;SDS011;61553;48.994;8.940;2022-08-18T17:40:23;11.45;;;10.25;;
32321;SDS011;61553;48.994;8.940;2022-08-18T17:43:14;13.07;;;10.85;;
32321;SDS011;61553;48.994;8.940;2022-08-18T17:46:00;12.98;;;11.02;;
32321;SDS011;61553;48.994;8.940;2022-08-18T17:48:34;12.27;;;10.97;;
32321;SDS011;61553;48.994;8.940;2022-08-18T17:51:09;13.48;;;11.82;;
32321;SDS011;61553;48.994;8.940;2022-08-18T17:53:59;12.60;;;11.20;;
32321;SDS011;61553;48.994;8.940;2022-08-18T17:56:50;12.75;;;10.25;;
32321;SDS011;61553;48.994;8.940;2022-08-18T17:59:33;12.95;;;11.13;;
32321;SDS011;61553;48.994;8.940;2022-08-18T18:02:09;13.27;;;11.57;;
32321;SDS011;61553;48.994;8.940;2022-08-18T18:04:41;12.60;;;11.30;;
32321;SDS011;61553;48.994;8.940;2022-08-18T18:10:04;13.00;;;11.27;;
32321;SDS011;61553;48.994;8.940;2022-08-18T18:12:33;12.32;;;11.02;;
32321;SDS011;61553;48.994;8.940;2022-08-18T18:15:00;14.35;;;10.68;;
32321;SDS011;61553;48.994;8.940;2022-08-18T18:17:29;14.23;;;11.95;;